sensor_id;sensor_type;location;lat;lon;timestamp;P1;durP1;ratioP1;P2;durP2;ratioP2
30966;SDS011;17649;51.836;8.330;2024-03-22T00:08:44;79.75;;;36.67;;
30966;SDS011;17649;51.836;8.330;2024-03-22T00:11:44;71.32;;;32.35;;
30966;SDS011;17649;51.836;8.330;2024-03-22T00:14:45;71.72;;;32.50;;
30966;SDS011;17649;51.836;8.330;2024-03-22T00:17:45;76.20;;;33.08;;
30966;SDS011;17649;51.836;8.330;2024-03-22T00:20:46;69.53;;;31.77;;
30966;SDS011;17649;51.836;8.330;2024-03-22T00:23:46;68.22;;;32.90;;
30966;SDS011;17649;51.836;8.330;2024-03-22T00:26:47;71.15;;;32.38;;
30966;SDS011;17649;51.836;8.330;2024-03-22T00:29:47;68.25;;;31.48;;
30966;SDS011;17649;51.836;8.330;2024-03-22T00:32:47;77.15;;;33.05;;
30966;SDS011;17649;51.836;8.330;2024-03-22T00:35:48;62.53;;;32.15;;
30966;SDS011;17649;51.836;8.330;2024-03-22T00:38:48;70.38;;;32.28;;
30966;SDS011;17649;51.836;8.330;2024-03-22T00:44:59;65.82;;;31.50;;
30966;SDS011;17649;51.836;8.330;2024-03-22T00:47:59;75.18;;;33.00;;
30966;SDS011;17649;51.836;8.330;2024-03-22T00:50:59;64.22;;;31.88;;
30966;SDS011;17649;51.836;8.330;2024-03-22T00:54:00;67.03;;;30.10;;
30966;SDS011;17649;51.836;8.330;2024-03-22T00:57:01;72.65;;;34.13;;
30966;SDS011;17649;51.836;8.330;2024-03-22T01:00:02;68.53;;;31.73;;
30966;SDS011;17649;51.836;8.330;2024-03-22T01:03:02;73.20;;;31.95;;
30966;SDS011;17649;51.836;8.330;2024-03-22T01:06:03;65.38;;;30.80;;
30966;SDS011;17649;51.836;8.330;2024-03-22T01:09:04;70.25;;;30.80;;
30966;SDS011;17649;51.836;8.330;2024-03-22T01:12:04;70.78;;;32.83;;
30966;SDS011;17649;51.836;8.330;2024-03-22T01:15:05;73.13;;;30.83;;
30966;SDS011;17649;51.836;8.330;2024-03-22T01:18:06;85.03;;;31.75;;
30966;SDS011;17649;51.836;8.330;2024-03-22T01:21:07;62.25;;;30.10;;
30966;SDS011;17649;51.836;8.330;2024-03-22T01:24:08;75.40;;;30.60;;
30966;SDS011;17649;51.836;8.330;2024-03-22T01:27:08;71.05;;;31.23;;
30966;SDS011;17649;51.836;8.330;2024-03-22T01:30:08;75.38;;;33.45;;
30966;SDS011;17649;51.836;8.330;2024-03-22T01:33:09;76.63;;;32.95;;
30966;SDS011;17649;51.836;8.330;2024-03-22T01:36:10;79.90;;;31.77;;
30966;SDS011;17649;51.836;8.330;2024-03-22T01:39:10;72.30;;;32.65;;
30966;SDS011;17649;51.836;8.330;2024-03-22T01:42:11;84.57;;;34.10;;
30966;SDS011;17649;51.836;8.330;2024-03-22T01:45:14;72.38;;;30.83;;
30966;SDS011;17649;51.836;8.330;2024-03-22T01:48:15;79.20;;;32.35;;
30966;SDS011;17649;51.836;8.330;2024-03-22T01:51:15;81.22;;;32.00;;
30966;SDS011;17649;51.836;8.330;2024-03-22T01:54:17;73.63;;;31.73;;
30966;SDS011;17649;51.836;8.330;2024-03-22T01:57:17;79.73;;;31.17;;
30966;SDS011;17649;51.836;8.330;2024-03-22T02:00:19;69.70;;;30.40;;
30966;SDS011;17649;51.836;8.330;2024-03-22T02:03:19;67.43;;;30.08;;
30966;SDS011;17649;51.836;8.330;2024-03-22T02:06:19;78.18;;;30.05;;
30966;SDS011;17649;51.836;8.330;2024-03-22T02:09:20;78.72;;;33.63;;
30966;SDS011;17649;51.836;8.330;2024-03-22T02:12:21;85.68;;;32.38;;
30966;SDS011;17649;51.836;8.330;2024-03-22T02:15:21;77.70;;;32.30;;
30966;SDS011;17649;51.836;8.330;2024-03-22T02:18:23;70.25;;;29.95;;
30966;SDS011;17649;51.836;8.330;2024-03-22T02:27:44;76.35;;;30.90;;
30966;SDS011;17649;51.836;8.330;2024-03-22T02:30:45;76.30;;;32.85;;
30966;SDS011;17649;51.836;8.330;2024-03-22T02:33:45;77.40;;;32.85;;
30966;SDS011;17649;51.836;8.330;2024-03-22T02:36:46;67.07;;;30.13;;
30966;SDS011;17649;51.836;8.330;2024-03-22T02:39:46;81.07;;;31.42;;
30966;SDS011;17649;51.836;8.330;2024-03-22T02:42:46;76.22;;;32.53;;
30966;SDS011;17649;51.836;8.330;2024-03-22T02:45:47;78.15;;;31.80;;
30966;SDS011;17649;51.836;8.330;2024-03-22T02:48:48;73.68;;;32.15;;
30966;SDS011;17649;51.836;8.330;2024-03-22T02:51:48;78.38;;;31.90;;
30966;SDS011;17649;51.836;8.330;2024-03-22T02:54:49;77.25;;;32.03;;
30966;SDS011;17649;51.836;8.330;2024-03-22T02:57:49;71.50;;;30.17;;
30966;SDS011;17649;51.836;8.330;2024-03-22T03:00:50;71.53;;;32.05;;
30966;SDS011;17649;51.836;8.330;2024-03-22T03:03:50;73.00;;;30.55;;
30966;SDS011;17649;51.836;8.330;2024-03-22T03:06:50;67.55;;;30.02;;
30966;SDS011;17649;51.836;8.330;2024-03-22T03:16:11;73.60;;;30.90;;
30966;SDS011;17649;51.836;8.330;2024-03-22T03:19:11;74.97;;;30.90;;
30966;SDS011;17649;51.836;8.330;2024-03-22T03:22:13;71.70;;;29.98;;
30966;SDS011;17649;51.836;8.330;2024-03-22T03:25:14;71.22;;;30.60;;
30966;SDS011;17649;51.836;8.330;2024-03-22T03:28:14;75.07;;;30.92;;
30966;SDS011;17649;51.836;8.330;2024-03-22T03:31:14;72.22;;;30.63;;
30966;SDS011;17649;51.836;8.330;2024-03-22T03:34:15;76.13;;;31.67;;
30966;SDS011;17649;51.836;8.330;2024-03-22T03:37:15;68.80;;;29.33;;
30966;SDS011;17649;51.836;8.330;2024-03-22T03:40:16;73.88;;;30.63;;
30966;SDS011;17649;51.836;8.330;2024-03-22T03:43:16;71.57;;;29.98;;
30966;SDS011;17649;51.836;8.330;2024-03-22T03:46:16;68.97;;;28.95;;
30966;SDS011;17649;51.836;8.330;2024-03-22T03:49:17;70.57;;;30.10;;
30966;SDS011;17649;51.836;8.330;2024-03-22T03:52:17;69.97;;;29.38;;
30966;SDS011;17649;51.836;8.330;2024-03-22T03:55:18;70.03;;;28.55;;
30966;SDS011;17649;51.836;8.330;2024-03-22T03:58:18;67.00;;;28.17;;
30966;SDS011;17649;51.836;8.330;2024-03-22T04:01:18;67.78;;;27.85;;
30966;SDS011;17649;51.836;8.330;2024-03-22T04:04:19;69.75;;;28.73;;
30966;SDS011;17649;51.836;8.330;2024-03-22T04:07:22;61.20;;;27.60;;
30966;SDS011;17649;51.836;8.330;2024-03-22T04:10:22;61.25;;;28.17;;
30966;SDS011;17649;51.836;8.330;2024-03-22T04:13:23;71.93;;;28.90;;
30966;SDS011;17649;51.836;8.330;2024-03-22T04:16:24;66.68;;;26.80;;
30966;SDS011;17649;51.836;8.330;2024-03-22T04:38:26;63.10;;;25.70;;
30966;SDS011;17649;51.836;8.330;2024-03-22T04:41:27;61.95;;;26.65;;
30966;SDS011;17649;51.836;8.330;2024-03-22T04:44:27;67.95;;;26.30;;
30966;SDS011;17649;51.836;8.330;2024-03-22T04:47:28;62.83;;;26.60;;
30966;SDS011;17649;51.836;8.330;2024-03-22T04:50:28;65.90;;;25.05;;
30966;SDS011;17649;51.836;8.330;2024-03-22T04:53:28;65.28;;;26.55;;
30966;SDS011;17649;51.836;8.330;2024-03-22T04:56:30;64.68;;;24.55;;
30966;SDS011;17649;51.836;8.330;2024-03-22T04:59:30;54.42;;;24.63;;
30966;SDS011;17649;51.836;8.330;2024-03-22T05:02:32;57.88;;;26.08;;
30966;SDS011;17649;51.836;8.330;2024-03-22T05:05:33;71.97;;;26.00;;
30966;SDS011;17649;51.836;8.330;2024-03-22T05:08:34;65.05;;;24.60;;
30966;SDS011;17649;51.836;8.330;2024-03-22T05:20:59;55.22;;;23.00;;
30966;SDS011;17649;51.836;8.330;2024-03-22T05:23:59;56.50;;;24.75;;
30966;SDS011;17649;51.836;8.330;2024-03-22T05:26:59;58.47;;;24.90;;
30966;SDS011;17649;51.836;8.330;2024-03-22T05:30:00;58.58;;;24.35;;
30966;SDS011;17649;51.836;8.330;2024-03-22T05:33:01;59.00;;;24.15;;
30966;SDS011;17649;51.836;8.330;2024-03-22T05:36:01;64.47;;;24.42;;
30966;SDS011;17649;51.836;8.330;2024-03-22T05:39:01;56.42;;;25.95;;
30966;SDS011;17649;51.836;8.330;2024-03-22T05:42:02;55.13;;;25.15;;
30966;SDS011;17649;51.836;8.330;2024-03-22T05:45:02;60.10;;;23.77;;
30966;SDS011;17649;51.836;8.330;2024-03-22T05:48:03;52.85;;;22.35;;
30966;SDS011;17649;51.836;8.330;2024-03-22T05:51:04;53.50;;;23.42;;
30966;SDS011;17649;51.836;8.330;2024-03-22T05:54:04;63.72;;;24.83;;
30966;SDS011;17649;51.836;8.330;2024-03-22T05:57:05;52.80;;;23.10;;
30966;SDS011;17649;51.836;8.330;2024-03-22T06:00:07;67.13;;;24.35;;
30966;SDS011;17649;51.836;8.330;2024-03-22T06:03:08;53.00;;;23.95;;
30966;SDS011;17649;51.836;8.330;2024-03-22T06:06:08;52.80;;;22.60;;
30966;SDS011;17649;51.836;8.330;2024-03-22T06:09:09;49.80;;;22.63;;
30966;SDS011;17649;51.836;8.330;2024-03-22T06:12:14;50.08;;;22.95;;
30966;SDS011;17649;51.836;8.330;2024-03-22T06:15:15;52.15;;;22.05;;
30966;SDS011;17649;51.836;8.330;2024-03-22T06:18:15;48.97;;;21.98;;
30966;SDS011;17649;51.836;8.330;2024-03-22T06:21:19;52.67;;;21.88;;
30966;SDS011;17649;51.836;8.330;2024-03-22T06:24:22;46.50;;;20.80;;
30966;SDS011;17649;51.836;8.330;2024-03-22T06:27:22;51.97;;;23.33;;
30966;SDS011;17649;51.836;8.330;2024-03-22T06:43:05;41.22;;;20.00;;
30966;SDS011;17649;51.836;8.330;2024-03-22T06:46:05;40.92;;;19.65;;
30966;SDS011;17649;51.836;8.330;2024-03-22T06:49:05;47.28;;;22.23;;
30966;SDS011;17649;51.836;8.330;2024-03-22T06:52:06;43.88;;;19.70;;
30966;SDS011;17649;51.836;8.330;2024-03-22T06:55:06;48.60;;;20.52;;
30966;SDS011;17649;51.836;8.330;2024-03-22T07:01:17;43.80;;;20.55;;
30966;SDS011;17649;51.836;8.330;2024-03-22T07:04:17;37.22;;;20.05;;
30966;SDS011;17649;51.836;8.330;2024-03-22T07:07:18;39.60;;;19.08;;
30966;SDS011;17649;51.836;8.330;2024-03-22T07:10:18;43.13;;;19.63;;
30966;SDS011;17649;51.836;8.330;2024-03-22T07:13:18;39.13;;;19.20;;
30966;SDS011;17649;51.836;8.330;2024-03-22T07:16:19;43.90;;;19.63;;
30966;SDS011;17649;51.836;8.330;2024-03-22T07:19:20;41.42;;;19.42;;
30966;SDS011;17649;51.836;8.330;2024-03-22T07:22:23;36.38;;;17.75;;
30966;SDS011;17649;51.836;8.330;2024-03-22T07:25:23;40.15;;;18.90;;
30966;SDS011;17649;51.836;8.330;2024-03-22T07:28:23;40.42;;;19.20;;
30966;SDS011;17649;51.836;8.330;2024-03-22T07:31:24;40.15;;;20.35;;
30966;SDS011;17649;51.836;8.330;2024-03-22T07:34:24;47.58;;;19.92;;
30966;SDS011;17649;51.836;8.330;2024-03-22T07:37:24;44.20;;;18.20;;
30966;SDS011;17649;51.836;8.330;2024-03-22T07:53:06;29.05;;;16.27;;
30966;SDS011;17649;51.836;8.330;2024-03-22T07:56:07;36.30;;;15.83;;
30966;SDS011;17649;51.836;8.330;2024-03-22T07:59:07;33.78;;;17.55;;
30966;SDS011;17649;51.836;8.330;2024-03-22T08:02:08;36.75;;;16.98;;
30966;SDS011;17649;51.836;8.330;2024-03-22T08:05:08;34.03;;;16.42;;
30966;SDS011;17649;51.836;8.330;2024-03-22T08:08:08;34.00;;;16.50;;
30966;SDS011;17649;51.836;8.330;2024-03-22T08:11:09;29.00;;;14.77;;
30966;SDS011;17649;51.836;8.330;2024-03-22T08:14:09;42.40;;;17.83;;
30966;SDS011;17649;51.836;8.330;2024-03-22T08:17:10;28.50;;;15.27;;
30966;SDS011;17649;51.836;8.330;2024-03-22T08:42:25;27.58;;;15.50;;
30966;SDS011;17649;51.836;8.330;2024-03-22T08:45:26;37.70;;;16.25;;
30966;SDS011;17649;51.836;8.330;2024-03-22T08:48:26;30.55;;;17.17;;
30966;SDS011;17649;51.836;8.330;2024-03-22T08:51:26;26.23;;;14.20;;
30966;SDS011;17649;51.836;8.330;2024-03-22T08:54:27;26.33;;;13.85;;
30966;SDS011;17649;51.836;8.330;2024-03-22T08:57:27;29.27;;;13.70;;
30966;SDS011;17649;51.836;8.330;2024-03-22T09:00:28;24.15;;;12.90;;
30966;SDS011;17649;51.836;8.330;2024-03-22T09:03:29;26.58;;;12.77;;
30966;SDS011;17649;51.836;8.330;2024-03-22T09:09:40;22.85;;;13.13;;
30966;SDS011;17649;51.836;8.330;2024-03-22T09:12:41;26.00;;;13.13;;
30966;SDS011;17649;51.836;8.330;2024-03-22T09:15:41;24.70;;;12.55;;
30966;SDS011;17649;51.836;8.330;2024-03-22T09:18:41;22.10;;;12.90;;
30966;SDS011;17649;51.836;8.330;2024-03-22T09:21:42;22.23;;;12.57;;
30966;SDS011;17649;51.836;8.330;2024-03-22T09:24:42;23.15;;;12.05;;
30966;SDS011;17649;51.836;8.330;2024-03-22T09:27:44;25.75;;;12.20;;
30966;SDS011;17649;51.836;8.330;2024-03-22T09:30:44;24.95;;;12.00;;
30966;SDS011;17649;51.836;8.330;2024-03-22T09:40:05;23.48;;;11.65;;
30966;SDS011;17649;51.836;8.330;2024-03-22T09:43:07;25.98;;;11.15;;
30966;SDS011;17649;51.836;8.330;2024-03-22T09:46:09;25.95;;;13.05;;
30966;SDS011;17649;51.836;8.330;2024-03-22T09:49:13;27.50;;;12.98;;
30966;SDS011;17649;51.836;8.330;2024-03-22T09:52:14;32.80;;;13.38;;
30966;SDS011;17649;51.836;8.330;2024-03-22T09:55:15;28.10;;;12.63;;
30966;SDS011;17649;51.836;8.330;2024-03-22T09:58:16;26.27;;;13.75;;
30966;SDS011;17649;51.836;8.330;2024-03-22T10:01:19;32.65;;;14.35;;
30966;SDS011;17649;51.836;8.330;2024-03-22T10:04:20;25.55;;;13.30;;
30966;SDS011;17649;51.836;8.330;2024-03-22T10:07:20;32.35;;;13.27;;
30966;SDS011;17649;51.836;8.330;2024-03-22T10:10:24;26.20;;;13.93;;
30966;SDS011;17649;51.836;8.330;2024-03-22T10:13:25;29.27;;;14.68;;
30966;SDS011;17649;51.836;8.330;2024-03-22T10:16:25;26.15;;;13.45;;
30966;SDS011;17649;51.836;8.330;2024-03-22T10:19:26;23.70;;;13.10;;
30966;SDS011;17649;51.836;8.330;2024-03-22T10:22:26;24.02;;;12.90;;
30966;SDS011;17649;51.836;8.330;2024-03-22T10:25:27;26.45;;;13.30;;
30966;SDS011;17649;51.836;8.330;2024-03-22T10:28:28;26.63;;;12.38;;
30966;SDS011;17649;51.836;8.330;2024-03-22T10:31:29;24.10;;;13.73;;
30966;SDS011;17649;51.836;8.330;2024-03-22T10:34:30;27.83;;;12.95;;
30966;SDS011;17649;51.836;8.330;2024-03-22T10:37:32;25.00;;;13.35;;
30966;SDS011;17649;51.836;8.330;2024-03-22T10:40:33;26.15;;;13.80;;
30966;SDS011;17649;51.836;8.330;2024-03-22T10:43:35;40.65;;;13.82;;
30966;SDS011;17649;51.836;8.330;2024-03-22T10:46:35;25.38;;;13.32;;
30966;SDS011;17649;51.836;8.330;2024-03-22T10:49:37;27.92;;;12.98;;
30966;SDS011;17649;51.836;8.330;2024-03-22T10:52:38;28.88;;;13.65;;
30966;SDS011;17649;51.836;8.330;2024-03-22T10:55:46;21.67;;;12.07;;
30966;SDS011;17649;51.836;8.330;2024-03-22T10:58:49;28.55;;;11.40;;
30966;SDS011;17649;51.836;8.330;2024-03-22T11:01:52;27.60;;;12.82;;
30966;SDS011;17649;51.836;8.330;2024-03-22T11:04:55;22.80;;;11.40;;
30966;SDS011;17649;51.836;8.330;2024-03-22T11:08:06;17.42;;;11.18;;
30966;SDS011;17649;51.836;8.330;2024-03-22T11:11:10;23.85;;;11.05;;
30966;SDS011;17649;51.836;8.330;2024-03-22T11:14:11;20.73;;;12.10;;
30966;SDS011;17649;51.836;8.330;2024-03-22T11:17:11;28.08;;;12.45;;
30966;SDS011;17649;51.836;8.330;2024-03-22T11:20:13;25.80;;;12.73;;
30966;SDS011;17649;51.836;8.330;2024-03-22T11:23:14;27.27;;;13.85;;
30966;SDS011;17649;51.836;8.330;2024-03-22T11:26:14;26.90;;;12.85;;
30966;SDS011;17649;51.836;8.330;2024-03-22T11:41:59;24.63;;;13.27;;
30966;SDS011;17649;51.836;8.330;2024-03-22T11:44:59;23.10;;;12.60;;
30966;SDS011;17649;51.836;8.330;2024-03-22T11:48:02;23.55;;;13.57;;
30966;SDS011;17649;51.836;8.330;2024-03-22T11:54:13;31.02;;;13.63;;
30966;SDS011;17649;51.836;8.330;2024-03-22T11:57:14;26.90;;;13.32;;
30966;SDS011;17649;51.836;8.330;2024-03-22T12:00:16;29.05;;;14.55;;
30966;SDS011;17649;51.836;8.330;2024-03-22T12:03:18;29.00;;;14.48;;
30966;SDS011;17649;51.836;8.330;2024-03-22T12:06:18;25.73;;;13.82;;
30966;SDS011;17649;51.836;8.330;2024-03-22T12:09:20;31.65;;;16.20;;
30966;SDS011;17649;51.836;8.330;2024-03-22T12:12:21;31.35;;;15.93;;
30966;SDS011;17649;51.836;8.330;2024-03-22T12:15:23;23.42;;;13.90;;
30966;SDS011;17649;51.836;8.330;2024-03-22T12:18:23;26.48;;;14.02;;
30966;SDS011;17649;51.836;8.330;2024-03-22T12:21:23;28.65;;;15.10;;
30966;SDS011;17649;51.836;8.330;2024-03-22T12:24:25;30.55;;;15.35;;
30966;SDS011;17649;51.836;8.330;2024-03-22T12:27:27;27.30;;;16.00;;
30966;SDS011;17649;51.836;8.330;2024-03-22T12:30:33;28.30;;;16.52;;
30966;SDS011;17649;51.836;8.330;2024-03-22T12:33:34;26.15;;;16.10;;
30966;SDS011;17649;51.836;8.330;2024-03-22T12:36:34;28.00;;;16.85;;
30966;SDS011;17649;51.836;8.330;2024-03-22T12:39:35;44.03;;;17.48;;
30966;SDS011;17649;51.836;8.330;2024-03-22T12:42:35;30.95;;;16.60;;
30966;SDS011;17649;51.836;8.330;2024-03-22T12:45:35;32.83;;;17.90;;
30966;SDS011;17649;51.836;8.330;2024-03-22T12:48:36;33.60;;;17.73;;
30966;SDS011;17649;51.836;8.330;2024-03-22T12:51:36;30.65;;;17.10;;
30966;SDS011;17649;51.836;8.330;2024-03-22T12:54:37;29.35;;;17.45;;
30966;SDS011;17649;51.836;8.330;2024-03-22T12:57:37;31.95;;;17.70;;
30966;SDS011;17649;51.836;8.330;2024-03-22T13:03:48;39.10;;;18.92;;
30966;SDS011;17649;51.836;8.330;2024-03-22T13:06:48;30.33;;;17.45;;
30966;SDS011;17649;51.836;8.330;2024-03-22T13:09:50;33.63;;;18.02;;
30966;SDS011;17649;51.836;8.330;2024-03-22T13:12:50;37.35;;;19.00;;
30966;SDS011;17649;51.836;8.330;2024-03-22T13:15:51;37.25;;;20.48;;
30966;SDS011;17649;51.836;8.330;2024-03-22T13:18:51;42.08;;;21.23;;
30966;SDS011;17649;51.836;8.330;2024-03-22T13:21:52;32.95;;;18.83;;
30966;SDS011;17649;51.836;8.330;2024-03-22T13:24:52;37.13;;;20.27;;
30966;SDS011;17649;51.836;8.330;2024-03-22T13:27:52;35.85;;;19.55;;
30966;SDS011;17649;51.836;8.330;2024-03-22T13:31:03;40.63;;;20.13;;
30966;SDS011;17649;51.836;8.330;2024-03-22T13:34:06;42.67;;;23.50;;
30966;SDS011;17649;51.836;8.330;2024-03-22T13:37:06;36.33;;;20.33;;
30966;SDS011;17649;51.836;8.330;2024-03-22T13:40:07;38.42;;;20.20;;
30966;SDS011;17649;51.836;8.330;2024-03-22T13:43:08;43.30;;;21.17;;
30966;SDS011;17649;51.836;8.330;2024-03-22T13:46:08;37.67;;;19.67;;
30966;SDS011;17649;51.836;8.330;2024-03-22T13:55:43;40.63;;;19.92;;
30966;SDS011;17649;51.836;8.330;2024-03-22T13:58:43;41.70;;;22.40;;
30966;SDS011;17649;51.836;8.330;2024-03-22T14:11:14;36.80;;;18.10;;
30966;SDS011;17649;51.836;8.330;2024-03-22T14:14:15;41.00;;;21.50;;
30966;SDS011;17649;51.836;8.330;2024-03-22T14:17:15;42.28;;;20.70;;
30966;SDS011;17649;51.836;8.330;2024-03-22T14:23:26;45.90;;;22.23;;
30966;SDS011;17649;51.836;8.330;2024-03-22T14:26:26;44.13;;;23.48;;
30966;SDS011;17649;51.836;8.330;2024-03-22T14:29:26;48.30;;;24.48;;
30966;SDS011;17649;51.836;8.330;2024-03-22T14:32:27;49.97;;;24.65;;
30966;SDS011;17649;51.836;8.330;2024-03-22T14:35:27;45.40;;;23.45;;
30966;SDS011;17649;51.836;8.330;2024-03-22T14:38:28;50.70;;;23.40;;
30966;SDS011;17649;51.836;8.330;2024-03-22T14:41:28;45.80;;;23.45;;
30966;SDS011;17649;51.836;8.330;2024-03-22T14:44:29;55.00;;;25.98;;
30966;SDS011;17649;51.836;8.330;2024-03-22T14:47:30;51.17;;;24.00;;
30966;SDS011;17649;51.836;8.330;2024-03-22T14:50:34;48.95;;;22.52;;
30966;SDS011;17649;51.836;8.330;2024-03-22T14:53:35;39.83;;;22.20;;
30966;SDS011;17649;51.836;8.330;2024-03-22T14:56:36;43.65;;;20.55;;
30966;SDS011;17649;51.836;8.330;2024-03-22T14:59:36;43.80;;;21.27;;
30966;SDS011;17649;51.836;8.330;2024-03-22T15:02:36;44.53;;;21.40;;
30966;SDS011;17649;51.836;8.330;2024-03-22T15:05:37;45.70;;;20.52;;
30966;SDS011;17649;51.836;8.330;2024-03-22T15:08:38;51.35;;;23.15;;
30966;SDS011;17649;51.836;8.330;2024-03-22T15:11:38;50.58;;;22.20;;
30966;SDS011;17649;51.836;8.330;2024-03-22T15:27:19;48.42;;;23.48;;
30966;SDS011;17649;51.836;8.330;2024-03-22T15:30:20;50.00;;;23.42;;
30966;SDS011;17649;51.836;8.330;2024-03-22T15:33:20;59.80;;;26.33;;
30966;SDS011;17649;51.836;8.330;2024-03-22T15:36:23;55.50;;;25.88;;
30966;SDS011;17649;51.836;8.330;2024-03-22T15:39:24;49.67;;;25.00;;
30966;SDS011;17649;51.836;8.330;2024-03-22T15:42:25;50.60;;;23.33;;
30966;SDS011;17649;51.836;8.330;2024-03-22T15:45:26;49.92;;;23.13;;
30966;SDS011;17649;51.836;8.330;2024-03-22T15:48:27;53.90;;;23.30;;
30966;SDS011;17649;51.836;8.330;2024-03-22T15:51:27;49.80;;;24.05;;
30966;SDS011;17649;51.836;8.330;2024-03-22T15:54:27;48.28;;;23.35;;
30966;SDS011;17649;51.836;8.330;2024-03-22T15:57:28;55.50;;;24.50;;
30966;SDS011;17649;51.836;8.330;2024-03-22T16:03:31;50.88;;;24.13;;
30966;SDS011;17649;51.836;8.330;2024-03-22T16:06:31;50.63;;;23.67;;
30966;SDS011;17649;51.836;8.330;2024-03-22T16:09:32;49.60;;;24.13;;
30966;SDS011;17649;51.836;8.330;2024-03-22T16:12:35;50.10;;;24.50;;
30966;SDS011;17649;51.836;8.330;2024-03-22T16:15:35;48.97;;;23.52;;
30966;SDS011;17649;51.836;8.330;2024-03-22T16:18:35;55.08;;;25.15;;
30966;SDS011;17649;51.836;8.330;2024-03-22T16:21:36;41.95;;;21.40;;
30966;SDS011;17649;51.836;8.330;2024-03-22T16:24:37;53.95;;;23.88;;
30966;SDS011;17649;51.836;8.330;2024-03-22T16:27:37;50.72;;;24.08;;
30966;SDS011;17649;51.836;8.330;2024-03-22T16:30:37;45.55;;;22.70;;
30966;SDS011;17649;51.836;8.330;2024-03-22T16:33:38;46.45;;;23.10;;
30966;SDS011;17649;51.836;8.330;2024-03-22T16:36:38;46.38;;;23.20;;
30966;SDS011;17649;51.836;8.330;2024-03-22T16:45:59;58.88;;;23.15;;
30966;SDS011;17649;51.836;8.330;2024-03-22T16:49:00;53.60;;;23.17;;
30966;SDS011;17649;51.836;8.330;2024-03-22T16:52:02;45.13;;;22.40;;
30966;SDS011;17649;51.836;8.330;2024-03-22T16:55:02;42.80;;;19.15;;
30966;SDS011;17649;51.836;8.330;2024-03-22T16:58:03;35.17;;;17.02;;
30966;SDS011;17649;51.836;8.330;2024-03-22T17:01:05;36.67;;;17.55;;
30966;SDS011;17649;51.836;8.330;2024-03-22T17:04:06;31.77;;;16.52;;
30966;SDS011;17649;51.836;8.330;2024-03-22T17:07:07;33.70;;;16.65;;
30966;SDS011;17649;51.836;8.330;2024-03-22T17:10:07;41.97;;;19.58;;
30966;SDS011;17649;51.836;8.330;2024-03-22T17:13:08;37.50;;;18.45;;
30966;SDS011;17649;51.836;8.330;2024-03-22T17:16:08;37.20;;;19.40;;
30966;SDS011;17649;51.836;8.330;2024-03-22T17:19:09;37.38;;;18.77;;
30966;SDS011;17649;51.836;8.330;2024-03-22T17:22:10;41.25;;;18.83;;
30966;SDS011;17649;51.836;8.330;2024-03-22T17:25:10;43.10;;;20.73;;
30966;SDS011;17649;51.836;8.330;2024-03-22T17:28:11;40.80;;;20.48;;
30966;SDS011;17649;51.836;8.330;2024-03-22T17:31:11;50.30;;;22.25;;
30966;SDS011;17649;51.836;8.330;2024-03-22T17:34:11;45.90;;;21.20;;
30966;SDS011;17649;51.836;8.330;2024-03-22T17:37:12;49.65;;;22.90;;
30966;SDS011;17649;51.836;8.330;2024-03-22T17:40:13;50.55;;;22.98;;
30966;SDS011;17649;51.836;8.330;2024-03-22T17:43:15;48.30;;;20.92;;
30966;SDS011;17649;51.836;8.330;2024-03-22T17:46:15;50.10;;;23.20;;
30966;SDS011;17649;51.836;8.330;2024-03-22T17:49:16;50.08;;;22.63;;
30966;SDS011;17649;51.836;8.330;2024-03-22T17:52:19;48.63;;;22.00;;
30966;SDS011;17649;51.836;8.330;2024-03-22T17:55:22;43.95;;;21.10;;
30966;SDS011;17649;51.836;8.330;2024-03-22T17:58:23;49.78;;;22.23;;
30966;SDS011;17649;51.836;8.330;2024-03-22T18:01:23;47.95;;;23.58;;
30966;SDS011;17649;51.836;8.330;2024-03-22T18:04:23;49.83;;;21.85;;
30966;SDS011;17649;51.836;8.330;2024-03-22T18:07:24;49.75;;;21.27;;
30966;SDS011;17649;51.836;8.330;2024-03-22T18:10:25;53.58;;;23.40;;
30966;SDS011;17649;51.836;8.330;2024-03-22T18:13:27;48.33;;;23.25;;
30966;SDS011;17649;51.836;8.330;2024-03-22T18:16:28;50.33;;;23.80;;
30966;SDS011;17649;51.836;8.330;2024-03-22T18:19:29;51.63;;;21.63;;
30966;SDS011;17649;51.836;8.330;2024-03-22T18:22:29;51.65;;;23.98;;
30966;SDS011;17649;51.836;8.330;2024-03-22T18:25:29;64.47;;;26.33;;
30966;SDS011;17649;51.836;8.330;2024-03-22T18:28:30;59.60;;;26.00;;
30966;SDS011;17649;51.836;8.330;2024-03-22T18:31:30;58.08;;;24.27;;
30966;SDS011;17649;51.836;8.330;2024-03-22T18:34:31;65.82;;;25.23;;
30966;SDS011;17649;51.836;8.330;2024-03-22T18:37:33;56.25;;;24.20;;
30966;SDS011;17649;51.836;8.330;2024-03-22T18:40:33;64.75;;;27.05;;
30966;SDS011;17649;51.836;8.330;2024-03-22T18:43:34;54.67;;;24.13;;
30966;SDS011;17649;51.836;8.330;2024-03-22T18:46:34;52.88;;;19.70;;
30966;SDS011;17649;51.836;8.330;2024-03-22T18:49:39;29.58;;;13.32;;
30966;SDS011;17649;51.836;8.330;2024-03-22T18:52:39;26.65;;;12.30;;
30966;SDS011;17649;51.836;8.330;2024-03-22T18:55:40;30.45;;;12.85;;
30966;SDS011;17649;51.836;8.330;2024-03-22T18:58:41;28.08;;;12.23;;
30966;SDS011;17649;51.836;8.330;2024-03-22T19:01:43;26.67;;;12.15;;
30966;SDS011;17649;51.836;8.330;2024-03-22T19:04:43;23.95;;;12.18;;
30966;SDS011;17649;51.836;8.330;2024-03-22T19:07:46;25.58;;;11.13;;
30966;SDS011;17649;51.836;8.330;2024-03-22T19:10:47;27.70;;;11.57;;
30966;SDS011;17649;51.836;8.330;2024-03-22T19:13:48;23.15;;;12.25;;
30966;SDS011;17649;51.836;8.330;2024-03-22T19:16:48;28.50;;;11.82;;
30966;SDS011;17649;51.836;8.330;2024-03-22T19:19:49;24.40;;;10.60;;
30966;SDS011;17649;51.836;8.330;2024-03-22T19:22:49;21.80;;;10.73;;
30966;SDS011;17649;51.836;8.330;2024-03-22T19:25:50;24.33;;;10.00;;
30966;SDS011;17649;51.836;8.330;2024-03-22T19:28:51;24.77;;;10.07;;
30966;SDS011;17649;51.836;8.330;2024-03-22T19:31:52;19.80;;;9.50;;
30966;SDS011;17649;51.836;8.330;2024-03-22T19:34:53;20.92;;;8.02;;
30966;SDS011;17649;51.836;8.330;2024-03-22T19:37:53;29.77;;;10.70;;
30966;SDS011;17649;51.836;8.330;2024-03-22T19:40:53;22.63;;;10.57;;
30966;SDS011;17649;51.836;8.330;2024-03-22T19:43:54;22.80;;;12.18;;
30966;SDS011;17649;51.836;8.330;2024-03-22T19:46:55;23.20;;;10.77;;
30966;SDS011;17649;51.836;8.330;2024-03-22T19:49:55;28.13;;;11.20;;
30966;SDS011;17649;51.836;8.330;2024-03-22T19:52:56;30.08;;;12.77;;
30966;SDS011;17649;51.836;8.330;2024-03-22T19:55:56;34.85;;;12.90;;
30966;SDS011;17649;51.836;8.330;2024-03-22T19:58:56;27.38;;;13.15;;
30966;SDS011;17649;51.836;8.330;2024-03-22T20:01:57;32.95;;;11.77;;
30966;SDS011;17649;51.836;8.330;2024-03-22T20:04:57;35.97;;;14.52;;
30966;SDS011;17649;51.836;8.330;2024-03-22T20:07:58;27.95;;;12.07;;
30966;SDS011;17649;51.836;8.330;2024-03-22T20:10:59;27.75;;;12.13;;
30966;SDS011;17649;51.836;8.330;2024-03-22T20:14:01;30.10;;;14.70;;
30966;SDS011;17649;51.836;8.330;2024-03-22T20:17:03;36.28;;;14.65;;
30966;SDS011;17649;51.836;8.330;2024-03-22T20:20:08;37.90;;;12.48;;
30966;SDS011;17649;51.836;8.330;2024-03-22T20:23:08;32.83;;;14.00;;
30966;SDS011;17649;51.836;8.330;2024-03-22T20:26:09;26.73;;;13.00;;
30966;SDS011;17649;51.836;8.330;2024-03-22T20:29:09;32.15;;;13.77;;